Time;durP1;ratioP1;P1;durP2;ratioP2;P2;SDS_P1;SDS_P2;PMS_P1;PMS_P2;Temp;Humidity;BMP_temperature;BMP_pressure;BME280_temperature;BME280_humidity;BME280_pressure;Samples;Min_cycle;Max_cycle;Signal;HPM_P1;HPM_P2
2023/09/19 04:06:23;;;;;;;0.30;0.30;;;17.70;99.90;;;;;;5250287;23;20577;-61
2023/09/19 04:08:49;;;;;;;0.30;0.30;;;17.80;99.90;;;;;;4980641;28;20533;-61
2023/09/19 04:11:14;;;;;;;0.30;0.30;;;17.80;99.90;;;;;;4980502;28;20290;-61
2023/09/19 04:13:40;;;;;;;0.30;0.30;;;17.80;99.90;;;;;;4980644;28;20168;-63
2023/09/19 04:16:09;;;;;;;0.30;0.30;;;17.80;99.90;;;;;;4980594;28;20283;-63
2023/09/19 04:18:38;;;;;;;0.30;0.30;;;17.80;99.90;;;;;;4980674;28;20204;-63
2023/09/19 04:21:05;;;;;;;0.30;0.20;;;17.90;99.90;;;;;;4980644;28;20481;-62
2023/09/19 04:23:31;;;;;;;0.30;0.30;;;17.80;99.90;;;;;;4980650;28;20466;-63
2023/09/19 04:25:57;;;;;;;0.30;0.30;;;17.80;99.90;;;;;;4980280;28;20443;-63
2023/09/19 04:28:24;;;;;;;0.40;0.40;;;17.70;99.90;;;;;;4980526;28;20406;-63
2023/09/19 04:30:49;;;;;;;0.30;0.30;;;17.70;99.90;;;;;;4980328;28;20419;-63
2023/09/19 04:33:15;;;;;;;0.30;0.20;;;17.60;99.90;;;;;;4980378;28;20405;-63
2023/09/19 04:35:42;;;;;;;0.30;0.30;;;17.50;99.90;;;;;;4961779;28;20446;-63
2023/09/19 04:38:08;;;;;;;0.30;0.30;;;17.50;99.90;;;;;;4978336;28;20208;-63
2023/09/19 04:40:34;;;;;;;0.30;0.20;;;17.40;99.90;;;;;;4977325;28;20407;-62
2023/09/19 04:43:00;;;;;;;0.30;0.20;;;17.30;99.90;;;;;;4974107;28;20977;-63
2023/09/19 04:45:27;;;;;;;0.30;0.30;;;17.30;99.90;;;;;;4956561;28;20944;-61
2023/09/19 04:47:54;;;;;;;0.30;0.20;;;17.20;99.90;;;;;;4958023;29;20863;-63
2023/09/19 04:50:21;;;;;;;0.30;0.30;;;17.20;99.90;;;;;;4957980;29;20873;-63
2023/09/19 04:52:50;;;;;;;0.30;0.30;;;17.20;99.90;;;;;;4957972;28;20900;-63
2023/09/19 04:55:18;;;;;;;0.30;0.20;;;17.20;99.90;;;;;;4976873;28;20457;-63
2023/09/19 04:57:48;;;;;;;0.30;0.30;;;17.20;99.90;;;;;;4977154;28;20823;-65
2023/09/19 05:00:19;;;;;;;0.30;0.30;;;17.20;99.90;;;;;;4978113;28;20412;-62
2023/09/19 05:02:45;;;;;;;0.30;0.20;;;17.20;99.90;;;;;;4978356;28;20743;-63
2023/09/19 05:05:11;;;;;;;0.30;0.30;;;17.20;99.90;;;;;;4958026;29;20524;-63
2023/09/19 05:07:39;;;;;;;0.40;0.30;;;17.30;99.90;;;;;;4958976;29;20450;-60
2023/09/19 05:10:06;;;;;;;0.30;0.30;;;17.30;99.90;;;;;;4958199;28;20915;-62
2023/09/19 05:12:36;;;;;;;0.30;0.30;;;17.30;99.90;;;;;;4957473;28;20489;-62
2023/09/19 05:15:03;;;;;;;0.30;0.30;;;17.30;99.90;;;;;;4974389;28;20452;-62
2023/09/19 05:17:29;;;;;;;0.30;0.20;;;17.30;99.90;;;;;;4976408;28;20454;-62
2023/09/19 05:19:54;;;;;;;0.30;0.30;;;17.30;99.90;;;;;;4976348;28;20497;-61
2023/09/19 05:22:20;;;;;;;0.30;0.20;;;17.20;99.90;;;;;;4976443;28;20431;-62
2023/09/19 05:24:48;;;;;;;0.80;0.40;;;17.20;99.90;;;;;;4960541;28;20201;-62
2023/09/19 05:27:16;;;;;;;0.30;0.20;;;17.20;99.90;;;;;;4957111;29;20486;-61
2023/09/19 05:29:44;;;;;;;0.30;0.30;;;17.20;99.90;;;;;;4957060;29;20416;-61
2023/09/19 05:32:10;;;;;;;0.30;0.30;;;17.10;99.90;;;;;;4956928;29;20828;-61
2023/09/19 05:34:36;;;;;;;0.30;0.20;;;17.10;99.90;;;;;;4970257;28;20445;-63
2023/09/19 05:37:02;;;;;;;0.30;0.30;;;17.10;99.90;;;;;;4976126;28;20960;-63
2023/09/19 05:39:27;;;;;;;0.40;0.40;;;17.10;99.90;;;;;;4976224;28;20173;-63
2023/09/19 05:41:53;;;;;;;0.30;0.30;;;17.10;99.90;;;;;;4976174;28;20402;-62
2023/09/19 05:44:19;;;;;;;0.30;0.30;;;17.10;99.90;;;;;;4964624;28;20183;-63
2023/09/19 05:46:47;;;;;;;0.30;0.20;;;17.10;99.90;;;;;;4939542;29;20674;-63
2023/09/19 05:49:13;;;;;;;0.30;0.30;;;17.10;99.90;;;;;;4956229;28;20767;-63
2023/09/19 05:51:39;;;;;;;0.30;0.20;;;17.10;99.90;;;;;;4957206;29;20422;-63
2023/09/19 05:54:05;;;;;;;0.30;0.30;;;17.10;99.90;;;;;;4964568;28;20619;-63
2023/09/19 05:56:31;;;;;;;0.30;0.30;;;17.10;99.90;;;;;;4975718;28;20681;-63
2023/09/19 05:58:56;;;;;;;0.30;0.20;;;17.10;99.90;;;;;;4976140;28;20645;-63
2023/09/19 06:01:22;;;;;;;0.30;0.20;;;17.00;99.90;;;;;;4975612;28;20476;-62
2023/09/19 06:03:48;;;;;;;0.30;0.20;;;17.00;99.90;;;;;;4969972;28;20251;-62
2023/09/19 06:06:14;;;;;;;0.30;0.30;;;16.90;99.90;;;;;;4956556;28;20624;-62
2023/09/19 06:08:39;;;;;;;0.30;0.30;;;16.90;99.90;;;;;;4956539;29;20646;-61
2023/09/19 06:11:09;;;;;;;0.30;0.27;;;16.80;99.90;;;;;;4956520;29;20921;-62
2023/09/19 06:13:34;;;;;;;0.30;0.20;;;16.70;99.90;;;;;;4959262;28;20188;-62
2023/09/19 06:16:04;;;;;;;0.30;0.30;;;16.60;99.90;;;;;;4957841;28;20528;-63
2023/09/19 06:18:33;;;;;;;0.30;0.30;;;16.50;99.90;;;;;;4975722;28;20289;-62
2023/09/19 06:20:59;;;;;;;0.30;0.30;;;16.30;99.90;;;;;;4975597;28;20423;-62
2023/09/19 06:23:26;;;;;;;0.40;0.40;;;16.10;99.90;;;;;;4973983;28;20400;-62
2023/09/19 06:25:53;;;;;;;0.30;0.30;;;15.90;99.90;;;;;;4955689;29;20939;-62
2023/09/19 06:28:23;;;;;;;0.47;0.47;;;15.80;99.90;;;;;;4956264;29;20467;-62
2023/09/19 06:30:49;;;;;;;0.30;0.30;;;15.80;99.90;;;;;;4938762;29;20519;-62
2023/09/19 06:33:15;;;;;;;0.40;0.40;;;15.80;99.90;;;;;;4956557;29;20512;-62
2023/09/19 06:35:41;;;;;;;0.30;0.20;;;15.90;99.90;;;;;;4955709;28;20302;-62
2023/09/19 06:38:07;;;;;;;0.40;0.30;;;15.90;99.90;;;;;;4955892;29;20463;-62
2023/09/19 06:40:34;;;;;;;1.37;0.70;;;16.00;99.90;;;;;;4955803;29;20413;-62
2023/09/19 06:43:01;;;;;;;0.30;0.30;;;16.00;99.90;;;;;;4955983;29;20449;-62
2023/09/19 06:45:27;;;;;;;0.30;0.30;;;16.10;99.90;;;;;;4971800;28;20451;-61
2023/09/19 06:47:57;;;;;;;0.30;0.20;;;16.20;99.90;;;;;;4975093;28;20417;-61
2023/09/19 06:50:23;;;;;;;0.30;0.30;;;16.40;99.90;;;;;;4974955;28;20371;-62
2023/09/19 06:52:51;;;;;;;0.30;0.30;;;16.50;99.90;;;;;;4975028;28;20473;-62
2023/09/19 06:55:19;;;;;;;0.30;0.30;;;16.60;99.90;;;;;;4957043;28;20809;-62
2023/09/19 06:57:44;;;;;;;0.30;0.30;;;16.80;99.90;;;;;;4955583;29;20445;-61
2023/09/19 07:00:22;;;;;;;0.30;0.20;;;17.00;99.90;;;;;;4955271;28;20427;-62
2023/09/19 07:03:00;;;;;;;0.30;0.20;;;17.10;99.90;;;;;;4938335;29;20197;-63
2023/09/19 07:05:29;;;;;;;0.30;0.30;;;17.20;99.90;;;;;;4971818;28;20449;-62
2023/09/19 07:08:03;;;;;;;0.30;0.30;;;17.40;99.90;;;;;;4973156;28;20443;-63
2023/09/19 07:10:30;;;;;;;0.30;0.20;;;17.50;99.90;;;;;;4955434;29;20394;-62
2023/09/19 07:13:00;;;;;;;0.30;0.30;;;17.70;99.90;;;;;;4955441;29;20417;-63
2023/09/19 07:15:26;;;;;;;0.30;0.30;;;17.90;99.90;;;;;;4961345;28;20440;-63
2023/09/19 07:17:53;;;;;;;0.30;0.30;;;18.20;99.90;;;;;;4958266;28;20495;-63
2023/09/19 07:20:19;;;;;;;0.30;0.20;;;18.40;99.90;;;;;;4955430;28;20827;-63
2023/09/19 07:22:45;;;;;;;0.30;0.20;;;18.70;99.90;;;;;;4955051;28;20977;-63
2023/09/19 07:25:11;;;;;;;0.30;0.30;;;19.00;99.90;;;;;;4954972;28;20507;-63
2023/09/19 07:27:36;;;;;;;0.30;0.30;;;19.20;99.90;;;;;;4955460;29;20651;-62
2023/09/19 07:30:02;;;;;;;0.30;0.30;;;19.40;99.90;;;;;;4955287;29;20192;-63
2023/09/19 07:32:27;;;;;;;0.30;0.30;;;19.50;99.90;;;;;;4955189;29;20247;-63
2023/09/19 07:34:55;;;;;;;0.30;0.30;;;19.60;99.90;;;;;;4956418;28;20228;-61
2023/09/19 07:37:25;;;;;;;0.30;0.30;;;19.70;99.90;;;;;;4965718;28;20605;-62
2023/09/19 07:39:51;;;;;;;0.30;0.30;;;19.80;99.90;;;;;;4968990;28;20395;-63
2023/09/19 07:42:17;;;;;;;0.30;0.30;;;19.90;99.90;;;;;;4974327;28;20861;-62
2023/09/19 07:44:47;;;;;;;0.30;0.30;;;20.00;99.90;;;;;;4973264;28;20593;-62
2023/09/19 07:47:14;;;;;;;0.30;0.30;;;20.20;99.90;;;;;;4974440;28;20426;-63
2023/09/19 07:49:40;;;;;;;0.30;0.20;;;20.40;99.90;;;;;;4974471;28;20780;-63
2023/09/19 07:52:07;;;;;;;0.30;0.20;;;20.60;99.90;;;;;;4974495;28;20408;-62
2023/09/19 07:54:35;;;;;;;0.30;0.30;;;21.00;99.90;;;;;;4973644;28;20880;-63
2023/09/19 07:57:01;;;;;;;0.30;0.30;;;21.50;99.90;;;;;;4955753;28;20427;-62
2023/09/19 07:59:27;;;;;;;0.40;0.40;;;22.10;99.90;;;;;;4937881;29;20462;-62
2023/09/19 08:01:53;;;;;;;0.30;0.20;;;22.70;99.90;;;;;;4955102;28;20405;-62
2023/09/19 08:04:19;;;;;;;0.30;0.30;;;23.30;99.90;;;;;;4954510;28;20406;-62
2023/09/19 08:06:45;;;;;;;0.30;0.20;;;23.80;99.90;;;;;;4970134;28;20444;-61
2023/09/19 08:09:12;;;;;;;0.40;0.40;;;24.30;99.90;;;;;;4974219;28;20650;-62
2023/09/19 08:11:39;;;;;;;0.40;0.40;;;24.60;99.90;;;;;;4974548;28;20233;-62
2023/09/19 08:14:05;;;;;;;0.30;0.20;;;24.80;99.90;;;;;;4960454;28;20422;-62
2023/09/19 08:16:31;;;;;;;0.30;0.30;;;25.10;99.90;;;;;;4963265;28;20451;-62
2023/09/19 08:18:57;;;;;;;0.30;0.30;;;25.50;99.90;;;;;;4958471;29;20424;-62
2023/09/19 08:21:23;;;;;;;0.50;0.50;;;26.00;99.90;;;;;;4958291;29;20634;-62
2023/09/19 08:23:50;;;;;;;0.30;0.20;;;26.40;99.70;;;;;;4957793;29;20181;-61
2023/09/19 08:26:16;;;;;;;0.30;0.30;;;27.00;99.40;;;;;;4952200;28;20425;-66
2023/09/19 08:28:42;;;;;;;0.30;0.20;;;27.50;98.50;;;;;;4977523;28;20764;-62
2023/09/19 08:31:08;;;;;;;0.60;0.40;;;28.10;97.40;;;;;;4977409;28;20469;-61
2023/09/19 08:33:35;;;;;;;0.50;0.50;;;28.40;95.70;;;;;;4977351;28;20180;-60
2023/09/19 08:36:04;;;;;;;0.30;0.20;;;28.70;94.30;;;;;;4967247;28;20482;-61
2023/09/19 08:38:32;;;;;;;0.30;0.30;;;28.80;93.90;;;;;;4962085;28;20465;-64
2023/09/19 08:40:59;;;;;;;0.53;0.50;;;29.00;94.00;;;;;;4977424;28;20497;-62
2023/09/19 08:43:25;;;;;;;0.50;0.43;;;29.10;93.40;;;;;;4976536;28;20426;-64
2023/09/19 08:45:57;;;;;;;0.40;0.30;;;29.30;93.00;;;;;;4976665;28;20943;-61
2023/09/19 08:48:26;;;;;;;0.30;0.30;;;29.20;91.80;;;;;;4977276;28;20408;-64
2023/09/19 08:51:06;;;;;;;0.30;0.20;;;29.20;92.10;;;;;;4977183;28;20478;-63
2023/09/19 08:53:42;;;;;;;0.30;0.30;;;29.10;92.20;;;;;;4971122;28;20776;-64
2023/09/19 08:56:10;;;;;;;0.30;0.30;;;28.80;91.20;;;;;;4957592;29;20440;-62
2023/09/19 08:58:51;;;;;;;0.30;0.30;;;28.40;92.10;;;;;;4957484;29;20459;-64
2023/09/19 09:01:22;;;;;;;0.30;0.20;;;28.10;91.90;;;;;;4957803;29;20399;-64
2023/09/19 09:03:48;;;;;;;0.30;0.30;;;28.00;92.40;;;;;;4964725;28;20797;-62
2023/09/19 09:06:15;;;;;;;0.57;0.40;;;27.90;92.50;;;;;;4976655;28;20437;-63
2023/09/19 09:08:41;;;;;;;0.40;0.40;;;28.20;92.90;;;;;;4959395;28;20489;-63
2023/09/19 09:11:07;;;;;;;0.30;0.30;;;28.60;92.20;;;;;;4976614;28;20798;-64
2023/09/19 09:13:35;;;;;;;0.30;0.30;;;29.00;92.10;;;;;;4970853;28;20555;-63
2023/09/19 09:16:01;;;;;;;0.50;0.37;;;29.30;90.80;;;;;;4956971;29;20436;-64
2023/09/19 09:18:29;;;;;;;0.70;0.40;;;29.60;90.30;;;;;;4957443;28;20789;-63
2023/09/19 09:20:56;;;;;;;0.43;0.43;;;30.00;90.40;;;;;;4957518;29;20185;-64
2023/09/19 09:23:21;;;;;;;0.40;0.30;;;30.50;89.50;;;;;;4959539;28;20708;-64
2023/09/19 09:25:54;;;;;;;0.30;0.30;;;31.00;86.20;;;;;;4975835;28;20410;-63
2023/09/19 09:28:30;;;;;;;0.30;0.30;;;31.10;80.80;;;;;;4959018;28;20188;-64
2023/09/19 09:31:08;;;;;;;0.30;0.30;;;31.00;81.50;;;;;;4976566;28;20754;-65
2023/09/19 09:33:34;;;;;;;0.40;0.40;;;30.60;79.70;;;;;;4971258;28;20514;-64
2023/09/19 09:36:02;;;;;;;0.53;0.40;;;30.30;80.70;;;;;;4956342;29;20433;-65
2023/09/19 09:38:45;;;;;;;0.40;0.30;;;30.10;82.50;;;;;;4956829;29;20447;-65
2023/09/19 09:41:15;;;;;;;0.60;0.50;;;29.70;82.10;;;;;;4957080;29;20399;-64
2023/09/19 09:43:46;;;;;;;0.40;0.40;;;29.20;83.00;;;;;;4962191;28;20837;-64
2023/09/19 09:49:14;;;;;;;0.50;0.50;;;29.40;85.70;;;;;;4975708;28;20793;-63
2023/09/19 09:51:45;;;;;;;0.30;0.23;;;30.00;84.60;;;;;;4975865;28;20394;-64
2023/09/19 09:54:21;;;;;;;0.43;0.43;;;30.70;81.70;;;;;;4948951;29;20433;-63
2023/09/19 09:57:01;;;;;;;0.30;0.30;;;31.00;79.80;;;;;;4956582;29;20487;-62
2023/09/19 09:59:49;;;;;;;0.30;0.20;;;31.20;78.70;;;;;;4956772;29;20412;-63
2023/09/19 10:02:25;;;;;;;0.80;0.40;;;31.30;77.50;;;;;;4956638;29;20388;-64
2023/09/19 10:07:49;;;;;;;0.50;0.50;;;30.50;76.70;;;;;;4975749;28;20438;-63
2023/09/19 10:10:21;;;;;;;0.80;0.40;;;29.90;80.10;;;;;;4975868;28;20421;-65
2023/09/19 10:12:48;;;;;;;0.30;0.20;;;29.30;79.60;;;;;;4975676;28;20394;-64
2023/09/19 10:15:17;;;;;;;0.30;0.27;;;28.90;80.10;;;;;;4957785;28;20931;-70
2023/09/19 10:17:44;;;;;;;0.30;0.30;;;28.40;80.20;;;;;;4956262;29;20426;-71
2023/09/19 10:20:33;;;;;;;0.30;0.30;;;27.80;82.60;;;;;;4956467;29;20420;-66
2023/09/19 10:23:03;;;;;;;0.30;0.30;;;27.00;84.20;;;;;;4939365;29;20443;-66
2023/09/19 10:25:30;;;;;;;0.47;0.30;;;26.60;85.80;;;;;;4974148;28;20447;-67
2023/09/19 10:27:59;;;;;;;0.40;0.40;;;26.10;86.90;;;;;;4958026;28;20913;-72
2023/09/19 10:30:30;;;;;;;0.30;0.30;;;25.70;89.10;;;;;;4975219;28;20378;-71
2023/09/19 10:33:03;;;;;;;0.30;0.20;;;25.70;88.80;;;;;;4975309;28;20493;-71
2023/09/19 10:35:30;;;;;;;0.30;0.20;;;25.80;88.70;;;;;;4956007;28;20415;-70
2023/09/19 10:37:59;;;;;;;0.30;0.30;;;26.00;89.00;;;;;;4938608;29;20970;-64
2023/09/19 10:40:30;;;;;;;0.30;0.20;;;26.00;88.20;;;;;;4955760;29;20817;-65
2023/09/19 10:43:05;;;;;;;0.30;0.20;;;26.00;88.00;;;;;;4955617;29;20394;-64
2023/09/19 10:45:32;;;;;;;0.30;0.30;;;26.30;88.40;;;;;;4955203;28;20955;-63
2023/09/19 10:47:58;;;;;;;0.30;0.30;;;26.60;85.10;;;;;;4974766;28;20390;-63
2023/09/19 10:50:25;;;;;;;0.40;0.40;;;27.00;83.70;;;;;;4975046;28;20406;-65
2023/09/19 10:53:00;;;;;;;0.30;0.30;;;27.20;82.50;;;;;;4958045;28;20394;-63
2023/09/19 10:55:28;;;;;;;0.30;0.20;;;27.30;81.80;;;;;;4957345;28;20448;-65
2023/09/19 10:57:57;;;;;;;0.30;0.30;;;27.40;81.90;;;;;;4955566;29;20475;-62
2023/09/19 11:00:29;;;;;;;0.40;0.30;;;27.40;81.30;;;;;;4973560;28;20900;-63
2023/09/19 11:03:18;;;;;;;0.30;0.30;;;27.50;80.10;;;;;;4974985;28;20390;-62
2023/09/19 11:06:10;;;;;;;0.30;0.20;;;27.50;80.70;;;;;;4974089;28;20402;-61
2023/09/19 11:11:42;;;;;;;0.30;0.30;;;26.50;80.60;;;;;;4955761;29;20383;-69
2023/09/19 11:14:23;;;;;;;0.37;0.37;;;25.90;84.10;;;;;;4955494;28;20418;-63
2023/09/19 11:17:07;;;;;;;0.30;0.30;;;25.50;85.70;;;;;;4938185;29;20486;-61
2023/09/19 11:22:50;;;;;;;0.30;0.30;;;25.00;85.50;;;;;;4974617;28;20443;-64
2023/09/19 11:25:31;;;;;;;0.30;0.30;;;24.90;85.70;;;;;;4974281;28;20431;-61
2023/09/19 11:28:07;;;;;;;0.30;0.20;;;24.80;85.80;;;;;;4974531;28;20385;-62
2023/09/19 11:30:33;;;;;;;0.30;0.20;;;24.70;86.00;;;;;;4955271;28;20424;-62
2023/09/19 11:33:23;;;;;;;0.30;0.30;;;24.50;85.90;;;;;;4961259;28;20473;-63
2023/09/19 11:36:09;;;;;;;0.30;0.20;;;24.40;84.20;;;;;;4993537;28;20508;-62
2023/09/19 11:38:44;;;;;;;0.30;0.30;;;24.20;87.40;;;;;;4989947;28;20460;-63
2023/09/19 11:41:22;;;;;;;0.30;0.20;;;24.00;86.20;;;;;;4974381;28;20498;-62
2023/09/19 11:44:17;;;;;;;0.30;0.20;;;23.80;87.70;;;;;;4974410;28;20495;-62
2023/09/19 11:46:53;;;;;;;0.37;0.37;;;23.80;88.70;;;;;;4950181;28;20411;-63
2023/09/19 11:49:31;;;;;;;0.30;0.20;;;23.80;88.00;;;;;;4975303;28;20924;-70
2023/09/19 11:52:01;;;;;;;0.30;0.30;;;23.80;87.20;;;;;;4947115;29;20419;-63
2023/09/19 11:54:31;;;;;;;0.30;0.27;;;23.90;87.30;;;;;;4963888;29;20387;-63
2023/09/19 11:56:58;;;;;;;0.30;0.20;;;23.80;85.20;;;;;;4959631;29;20463;-62
2023/09/19 11:59:29;;;;;;;0.30;0.20;;;23.80;85.70;;;;;;4966831;28;20419;-61
2023/09/19 12:02:03;;;;;;;0.60;0.37;;;23.70;85.80;;;;;;4978326;28;20400;-61
2023/09/19 12:04:44;;;;;;;0.30;0.20;;;23.70;85.90;;;;;;4977990;28;20396;-62
2023/09/19 12:07:15;;;;;;;0.30;0.20;;;23.70;86.40;;;;;;4978044;28;20848;-61
2023/09/19 12:10:02;;;;;;;0.30;0.20;;;23.70;86.00;;;;;;4968231;28;20443;-61
2023/09/19 12:12:27;;;;;;;0.30;0.20;;;23.70;85.90;;;;;;4958648;29;20412;-62
2023/09/19 12:14:57;;;;;;;0.30;0.30;;;23.70;86.50;;;;;;4957996;29;20913;-60
2023/09/19 12:17:23;;;;;;;0.30;0.20;;;23.70;86.50;;;;;;4958430;29;20456;-61
2023/09/19 12:19:53;;;;;;;0.30;0.20;;;23.70;86.90;;;;;;4969222;28;20398;-62
2023/09/19 12:22:20;;;;;;;0.30;0.20;;;23.70;87.60;;;;;;4977834;28;20404;-63
2023/09/19 12:24:47;;;;;;;0.30;0.20;;;23.80;86.50;;;;;;4977264;28;20431;-63
2023/09/19 12:27:13;;;;;;;0.30;0.20;;;23.80;85.80;;;;;;4977622;28;20404;-63
2023/09/19 12:29:48;;;;;;;0.30;0.20;;;23.70;86.20;;;;;;4969246;28;20435;-62
2023/09/19 12:32:16;;;;;;;0.30;0.20;;;23.70;87.00;;;;;;4958314;29;20941;-63
2023/09/19 12:34:51;;;;;;;0.30;0.27;;;23.60;88.00;;;;;;4940299;29;20488;-63
2023/09/19 12:37:22;;;;;;;0.30;0.20;;;23.50;87.90;;;;;;4956450;29;20447;-63
2023/09/19 12:39:55;;;;;;;0.30;0.30;;;23.50;88.90;;;;;;4966073;28;20628;-62
2023/09/19 12:42:22;;;;;;;0.30;0.27;;;23.50;88.50;;;;;;4958383;28;20387;-63
2023/09/19 12:44:56;;;;;;;0.30;0.20;;;23.50;88.50;;;;;;4975051;28;20398;-64
2023/09/19 12:47:24;;;;;;;0.30;0.20;;;23.50;88.80;;;;;;4975856;28;20404;-63
2023/09/19 12:50:18;;;;;;;0.30;0.20;;;23.50;89.40;;;;;;4958894;28;20487;-62
2023/09/19 12:52:50;;;;;;;0.30;0.20;;;23.50;89.50;;;;;;4957536;29;20418;-61
2023/09/19 12:55:24;;;;;;;0.30;0.20;;;23.60;89.10;;;;;;4957224;29;20456;-63
2023/09/19 12:58:01;;;;;;;0.40;0.30;;;23.60;89.10;;;;;;4956559;28;20456;-64
2023/09/19 13:00:47;;;;;;;0.30;0.23;;;23.70;89.60;;;;;;4976298;28;20439;-63
2023/09/19 13:03:28;;;;;;;0.30;0.30;;;23.70;90.30;;;;;;4977062;28;20470;-63
2023/09/19 13:05:55;;;;;;;0.30;0.20;;;23.80;89.40;;;;;;4976448;28;20518;-64
2023/09/19 13:08:31;;;;;;;0.30;0.20;;;23.80;89.10;;;;;;4972360;28;20420;-61
2023/09/19 13:11:09;;;;;;;0.30;0.20;;;24.00;88.90;;;;;;4957668;29;20420;-62
2023/09/19 13:13:41;;;;;;;0.30;0.20;;;24.00;88.20;;;;;;4957464;29;20430;-62
2023/09/19 13:16:08;;;;;;;0.30;0.30;;;24.20;88.70;;;;;;4957076;29;20428;-63
2023/09/19 13:18:45;;;;;;;3.03;0.67;;;24.20;87.50;;;;;;4962790;28;20459;-62
2023/09/19 13:21:22;;;;;;;0.30;0.20;;;24.20;86.80;;;;;;4976734;28;20992;-63
2023/09/19 13:24:17;;;;;;;0.30;0.30;;;24.10;86.50;;;;;;4962095;28;20788;-63
2023/09/19 13:26:43;;;;;;;0.40;0.30;;;23.90;88.20;;;;;;4973595;28;20443;-63
2023/09/19 13:29:08;;;;;;;0.30;0.20;;;23.90;88.60;;;;;;4976570;28;20420;-63
2023/09/19 13:31:34;;;;;;;0.30;0.20;;;23.80;88.50;;;;;;4976428;28;20168;-63
2023/09/19 13:33:59;;;;;;;0.30;0.20;;;23.80;88.30;;;;;;4964461;28;20622;-64
2023/09/19 13:36:25;;;;;;;0.30;0.20;;;23.80;89.30;;;;;;4956955;28;20203;-62
2023/09/19 13:38:53;;;;;;;0.30;0.20;;;23.70;89.50;;;;;;4957055;29;20244;-63
2023/09/19 13:41:18;;;;;;;0.40;0.40;;;23.70;88.90;;;;;;4957116;28;20646;-63
2023/09/19 13:43:48;;;;;;;0.30;0.30;;;23.70;89.20;;;;;;4948015;28;20401;-63
2023/09/19 13:46:15;;;;;;;0.30;0.20;;;23.70;90.00;;;;;;4976164;28;20181;-64
2023/09/19 13:48:41;;;;;;;0.30;0.30;;;23.80;90.60;;;;;;4976312;28;20435;-64
2023/09/19 13:51:07;;;;;;;0.30;0.20;;;23.90;90.20;;;;;;4976215;28;20407;-64
2023/09/19 13:53:32;;;;;;;0.30;0.27;;;24.00;90.30;;;;;;4968815;28;20204;-63
2023/09/19 13:55:58;;;;;;;0.40;0.37;;;24.00;89.70;;;;;;4956502;28;20197;-63
2023/09/19 13:58:24;;;;;;;0.30;0.20;;;23.90;88.80;;;;;;4956611;29;20640;-63
2023/09/19 14:00:50;;;;;;;0.30;0.20;;;23.90;88.30;;;;;;4956755;29;20177;-63
2023/09/19 14:03:16;;;;;;;0.30;0.20;;;24.00;89.10;;;;;;4960943;28;20185;-64
2023/09/19 14:05:42;;;;;;;0.30;0.30;;;24.00;88.70;;;;;;4975458;28;20422;-62
2023/09/19 14:08:08;;;;;;;0.30;0.20;;;24.00;90.00;;;;;;4975826;28;20172;-62
2023/09/19 14:10:34;;;;;;;0.30;0.30;;;23.90;90.00;;;;;;4975523;28;20406;-63
2023/09/19 14:13:00;;;;;;;0.30;0.20;;;23.80;89.50;;;;;;4973042;28;20428;-63
2023/09/19 14:15:30;;;;;;;0.30;0.20;;;23.70;89.20;;;;;;4956027;29;20484;-63
2023/09/19 14:17:58;;;;;;;0.30;0.30;;;23.60;89.90;;;;;;4956371;29;20427;-63
2023/09/19 14:20:23;;;;;;;2.10;0.70;;;23.40;90.00;;;;;;4956120;29;20387;-65
2023/09/19 14:22:49;;;;;;;0.30;0.27;;;23.40;90.30;;;;;;4956458;28;20398;-63
2023/09/19 14:25:15;;;;;;;0.33;0.30;;;23.30;90.70;;;;;;4974962;28;20230;-63
2023/09/19 14:27:41;;;;;;;0.30;0.30;;;23.40;90.60;;;;;;4958249;28;20173;-63
2023/09/19 14:30:07;;;;;;;0.30;0.30;;;23.40;90.20;;;;;;4975351;28;20175;-63
2023/09/19 14:32:33;;;;;;;0.30;0.20;;;23.40;90.00;;;;;;4975204;28;20909;-62
2023/09/19 14:34:59;;;;;;;0.40;0.40;;;23.40;89.10;;;;;;4957173;28;20452;-61
2023/09/19 14:37:24;;;;;;;0.30;0.20;;;23.40;89.40;;;;;;4955927;29;20434;-63
2023/09/19 14:39:50;;;;;;;0.30;0.20;;;23.40;90.00;;;;;;4956011;28;20165;-62
2023/09/19 14:42:17;;;;;;;0.30;0.30;;;23.30;88.40;;;;;;4955814;28;20702;-63
2023/09/19 14:44:43;;;;;;;0.30;0.20;;;23.20;88.70;;;;;;4970036;28;20255;-61
2023/09/19 14:47:12;;;;;;;0.30;0.20;;;23.10;89.20;;;;;;4975175;28;20412;-64
2023/09/19 14:49:38;;;;;;;0.70;0.70;;;23.10;89.90;;;;;;4975263;28;20424;-62
2023/09/19 14:52:05;;;;;;;0.63;0.63;;;23.00;90.70;;;;;;4957944;28;20382;-63
2023/09/19 14:54:30;;;;;;;0.30;0.30;;;23.00;90.70;;;;;;4961063;28;20189;-64
2023/09/19 14:57:04;;;;;;;0.30;0.20;;;22.90;90.20;;;;;;4955700;29;20435;-63
2023/09/19 14:59:34;;;;;;;0.30;0.30;;;23.00;88.80;;;;;;4966662;28;20181;-61
2023/09/19 15:01:59;;;;;;;0.53;0.53;;;23.00;90.00;;;;;;4975192;28;20425;-63
2023/09/19 15:04:25;;;;;;;0.30;0.20;;;23.10;90.00;;;;;;4974466;28;20788;-63
2023/09/19 15:06:54;;;;;;;0.30;0.20;;;23.10;90.20;;;;;;4975004;28;20219;-63
2023/09/19 15:09:25;;;;;;;0.30;0.20;;;23.20;90.20;;;;;;4965580;28;20403;-64
2023/09/19 15:11:54;;;;;;;0.30;0.20;;;23.30;90.40;;;;;;4955710;29;20405;-62
2023/09/19 15:14:20;;;;;;;0.30;0.30;;;23.30;90.80;;;;;;4955207;29;20387;-63
2023/09/19 15:16:47;;;;;;;0.30;0.20;;;23.30;90.10;;;;;;4955555;29;20395;-61
2023/09/19 15:19:13;;;;;;;0.30;0.20;;;23.20;89.40;;;;;;4963119;28;20755;-63
2023/09/19 15:21:40;;;;;;;0.30;0.20;;;23.20;90.20;;;;;;4974047;28;20394;-63
2023/09/19 15:24:09;;;;;;;0.30;0.30;;;23.10;90.40;;;;;;4974257;28;20792;-62
2023/09/19 15:26:38;;;;;;;0.30;0.20;;;23.10;90.30;;;;;;4974442;28;20423;-63
2023/09/19 15:29:07;;;;;;;0.30;0.20;;;23.00;90.20;;;;;;4968363;28;20949;-64
2023/09/19 15:31:33;;;;;;;0.30;0.20;;;22.90;90.00;;;;;;4955224;29;20409;-62
2023/09/19 15:33:59;;;;;;;0.30;0.30;;;22.90;89.40;;;;;;4954956;29;20404;-62
2023/09/19 15:36:24;;;;;;;0.30;0.30;;;22.80;88.80;;;;;;4955030;29;20427;-61
2023/09/19 15:39:11;;;;;;;0.30;0.30;;;22.80;88.70;;;;;;4958453;28;20668;-62
2023/09/19 15:41:42;;;;;;;0.30;0.30;;;22.80;88.70;;;;;;4957095;28;20644;-62
2023/09/19 15:44:15;;;;;;;0.30;0.30;;;22.80;89.40;;;;;;4974283;28;20472;-60
2023/09/19 15:46:41;;;;;;;0.30;0.20;;;22.70;90.10;;;;;;4974366;28;20430;-61
2023/09/19 15:49:07;;;;;;;0.30;0.20;;;22.70;89.50;;;;;;4968208;28;20420;-63
2023/09/19 15:51:35;;;;;;;0.30;0.20;;;22.70;89.10;;;;;;4955219;29;20404;-62
2023/09/19 15:54:06;;;;;;;0.30;0.20;;;22.70;89.40;;;;;;4954778;28;21172;-63
2023/09/19 15:56:34;;;;;;;0.30;0.20;;;22.70;89.30;;;;;;4937778;29;20472;-62
2023/09/19 15:59:00;;;;;;;0.30;0.30;;;22.70;90.20;;;;;;4959726;28;20470;-63
2023/09/19 16:01:26;;;;;;;0.30;0.30;;;22.60;90.10;;;;;;4974778;28;20725;-63
2023/09/19 16:03:55;;;;;;;0.50;0.50;;;22.50;90.20;;;;;;4974142;28;20677;-62
2023/09/19 16:06:25;;;;;;;0.30;0.20;;;22.50;90.00;;;;;;4974050;28;20202;-63
2023/09/19 16:08:54;;;;;;;0.30;0.20;;;22.30;90.20;;;;;;4973474;28;20541;-61
2023/09/19 16:11:20;;;;;;;0.30;0.30;;;22.30;90.20;;;;;;4974496;28;20452;-63
2023/09/19 16:13:48;;;;;;;0.30;0.30;;;22.20;90.60;;;;;;4973980;28;20925;-62
2023/09/19 16:16:16;;;;;;;0.83;0.30;;;22.20;90.60;;;;;;4974317;28;20194;-62
2023/09/19 16:18:49;;;;;;;0.30;0.20;;;22.10;90.80;;;;;;4972258;28;20792;-61
2023/09/19 16:21:17;;;;;;;0.30;0.30;;;22.10;91.50;;;;;;4955249;29;20372;-62
2023/09/19 16:23:50;;;;;;;0.30;0.20;;;22.00;91.40;;;;;;4938072;29;20416;-62
2023/09/19 16:26:18;;;;;;;0.30;0.20;;;22.00;91.30;;;;;;4973697;28;20759;-62
2023/09/19 16:28:47;;;;;;;0.30;0.30;;;21.90;91.30;;;;;;4974342;28;20427;-62
2023/09/19 16:31:17;;;;;;;0.30;0.30;;;21.90;91.60;;;;;;4974257;28;20410;-61
2023/09/19 16:33:45;;;;;;;0.30;0.30;;;21.80;91.60;;;;;;4958303;28;20424;-61
2023/09/19 16:36:13;;;;;;;0.30;0.20;;;21.80;91.80;;;;;;4958780;29;20392;-63
2023/09/19 16:38:39;;;;;;;0.30;0.30;;;21.80;92.00;;;;;;4958474;28;20511;-61
2023/09/19 16:41:07;;;;;;;0.40;0.30;;;21.70;92.00;;;;;;4958087;29;20456;-62
2023/09/19 16:43:33;;;;;;;0.30;0.20;;;21.60;92.10;;;;;;4973254;28;20414;-67
2023/09/19 16:45:59;;;;;;;0.30;0.30;;;21.70;92.50;;;;;;4977038;28;20391;-61
2023/09/19 16:48:26;;;;;;;0.67;0.40;;;21.60;92.40;;;;;;4977526;28;20399;-61
2023/09/19 16:50:53;;;;;;;0.30;0.30;;;21.60;92.50;;;;;;4977310;28;20470;-62
2023/09/19 16:53:20;;;;;;;0.30;0.30;;;21.50;92.60;;;;;;4968242;28;20458;-62
2023/09/19 16:55:46;;;;;;;0.30;0.20;;;21.50;92.50;;;;;;4976535;28;20476;-62
2023/09/19 16:58:16;;;;;;;0.30;0.20;;;21.40;92.70;;;;;;4977279;28;20431;-63
2023/09/19 17:00:48;;;;;;;0.30;0.20;;;21.40;93.00;;;;;;4977150;28;20416;-63
2023/09/19 17:03:13;;;;;;;0.40;0.40;;;21.30;92.90;;;;;;4973618;28;20421;-62
2023/09/19 17:05:40;;;;;;;0.30;0.20;;;21.20;92.70;;;;;;4957088;28;20432;-65
2023/09/19 17:08:09;;;;;;;0.70;0.63;;;21.20;93.10;;;;;;4957630;29;20188;-66
2023/09/19 17:10:36;;;;;;;0.30;0.30;;;21.20;93.30;;;;;;4957813;28;20416;-66
2023/09/19 17:13:05;;;;;;;0.30;0.30;;;21.20;93.50;;;;;;4958451;28;20409;-68
2023/09/19 17:15:31;;;;;;;0.30;0.30;;;21.10;93.40;;;;;;4976376;28;20612;-65